Time;durP1;ratioP1;P1;durP2;ratioP2;P2;SDS_P1;SDS_P2;PMS_P1;PMS_P2;Temp;Humidity;BMP_temperature;BMP_pressure;BME280_temperature;BME280_humidity;BME280_pressure;Samples;Min_cycle;Max_cycle;Signal;HPM_P1;HPM_P2
2021/04/13 00:02:38;;;;;;;6.18;4.38;;;3.00;99.90;;;;;;5012002;28;20120;-73
2021/04/13 00:05:40;;;;;;;7.15;3.53;;;3.00;99.90;;;;;;5008942;28;20084;-72
2021/04/13 00:08:15;;;;;;;5.63;3.28;;;2.90;99.90;;;;;;5012149;28;20052;-72
2021/04/13 00:10:53;;;;;;;4.55;3.28;;;2.90;99.90;;;;;;5009724;28;20033;-72
2021/04/13 00:13:21;;;;;;;3.58;3.28;;;2.90;99.90;;;;;;5007876;28;20033;-73
2021/04/13 00:15:53;;;;;;;4.63;3.20;;;2.80;99.90;;;;;;5006341;28;20037;-72
2021/04/13 00:18:25;;;;;;;4.38;3.40;;;2.80;99.90;;;;;;5008651;28;20040;-72
2021/04/13 00:20:59;;;;;;;3.80;3.47;;;2.80;99.90;;;;;;5008188;28;20022;-72
2021/04/13 00:23:25;;;;;;;5.60;3.22;;;2.80;99.90;;;;;;5010818;28;20084;-72
2021/04/13 00:26:05;;;;;;;3.67;3.05;;;2.70;99.90;;;;;;5007378;28;20162;-73
2021/04/13 00:28:54;;;;;;;8.00;3.45;;;2.70;99.90;;;;;;5011709;28;20048;-73
2021/04/13 00:31:38;;;;;;;3.90;3.05;;;2.70;99.90;;;;;;5010610;28;20409;-72
2021/04/13 00:34:06;;;;;;;7.32;4.22;;;2.70;99.90;;;;;;5015229;28;20401;-74
2021/04/13 00:36:31;;;;;;;4.20;3.58;;;2.80;99.90;;;;;;5016293;28;20513;-72
2021/04/13 00:38:57;;;;;;;5.35;4.45;;;2.80;99.90;;;;;;5006031;28;20026;-72
2021/04/13 00:41:29;;;;;;;4.60;3.60;;;2.80;99.90;;;;;;5027727;28;20025;-72
2021/04/13 00:44:00;;;;;;;6.25;3.83;;;2.80;99.90;;;;;;5018019;28;20030;-72
2021/04/13 00:46:38;;;;;;;4.28;3.88;;;2.80;99.90;;;;;;5018643;28;20030;-72
2021/04/13 00:49:04;;;;;;;5.25;3.67;;;2.90;99.90;;;;;;5008732;28;20053;-73
2021/04/13 00:51:41;;;;;;;4.78;4.22;;;2.90;99.90;;;;;;5008126;28;20034;-72
2021/04/13 00:54:12;;;;;;;4.60;4.10;;;2.90;99.90;;;;;;5009502;28;20037;-71
2021/04/13 00:56:40;;;;;;;5.78;4.35;;;3.00;99.90;;;;;;5006756;28;20034;-73
2021/04/13 00:59:09;;;;;;;4.38;3.92;;;3.00;99.90;;;;;;5002810;28;20065;-72
2021/04/13 01:01:39;;;;;;;5.78;4.40;;;3.00;99.90;;;;;;5005314;28;20474;-73
2021/04/13 01:04:18;;;;;;;5.18;4.53;;;3.10;99.90;;;;;;5008649;28;20030;-73
2021/04/13 01:06:44;;;;;;;4.47;4.00;;;3.00;99.90;;;;;;5005982;28;20498;-73
2021/04/13 01:09:22;;;;;;;6.15;5.22;;;3.00;99.90;;;;;;5001259;28;20041;-73
2021/04/13 01:12:01;;;;;;;5.15;4.65;;;3.00;99.90;;;;;;5006102;28;20030;-72
2021/04/13 01:14:30;;;;;;;6.50;4.80;;;3.00;99.90;;;;;;5008698;28;20037;-73
2021/04/13 01:17:02;;;;;;;8.32;5.43;;;2.90;99.90;;;;;;5010276;28;20029;-73
2021/04/13 01:19:31;;;;;;;5.95;5.15;;;2.90;99.90;;;;;;5008522;28;20097;-73
2021/04/13 01:22:21;;;;;;;6.55;5.68;;;2.90;99.90;;;;;;5011630;28;20153;-72
2021/04/13 01:24:52;;;;;;;6.85;5.65;;;2.90;99.90;;;;;;5005320;28;20449;-72
2021/04/13 01:27:22;;;;;;;;;;;2.90;99.90;;;;;;5009895;28;20168;-72
2021/04/13 01:29:50;;;;;;;8.35;5.70;;;2.80;99.90;;;;;;5016657;28;20265;-72
2021/04/13 01:32:17;;;;;;;6.82;5.78;;;2.80;99.90;;;;;;5011057;28;20406;-72
2021/04/13 01:34:54;;;;;;;5.43;4.93;;;2.80;99.90;;;;;;5002540;28;20107;-72
2021/04/13 01:39:54;;;;;;;7.38;6.68;;;2.90;99.90;;;;;;5006973;28;20036;-71
2021/04/13 01:42:22;;;;;;;7.88;6.03;;;2.90;99.90;;;;;;5008418;28;20026;-72
2021/04/13 01:44:57;;;;;;;8.88;5.78;;;2.70;99.90;;;;;;5007956;28;20049;-73
2021/04/13 01:47:25;;;;;;;9.90;6.85;;;2.70;99.90;;;;;;5002308;28;20025;-73
2021/04/13 01:50:07;;;;;;;9.27;7.60;;;2.60;99.90;;;;;;5004485;28;20036;-72
2021/04/13 01:52:40;;;;;;;8.50;6.75;;;2.50;99.90;;;;;;5004562;28;20022;-73
2021/04/13 01:55:15;;;;;;;7.95;7.05;;;2.70;99.90;;;;;;5009542;28;20395;-73
2021/04/13 01:57:43;;;;;;;7.45;6.13;;;2.70;99.90;;;;;;5013742;28;20075;-73
2021/04/13 02:00:16;;;;;;;10.85;6.97;;;2.60;99.90;;;;;;5010866;28;20057;-73
2021/04/13 02:02:58;;;;;;;7.50;6.15;;;2.50;99.90;;;;;;4994508;28;20386;-73
2021/04/13 02:05:28;;;;;;;8.05;6.30;;;2.40;99.90;;;;;;5008901;28;20026;-72
2021/04/13 02:08:03;;;;;;;7.32;6.53;;;2.30;99.90;;;;;;5001966;28;20418;-72
2021/04/13 02:10:37;;;;;;;13.93;6.70;;;2.30;1.00;;;;;;5011732;28;20041;-72
2021/04/13 02:13:15;;;;;;;7.38;6.15;;;2.30;1.00;;;;;;5003703;28;20021;-72
2021/04/13 02:15:57;;;;;;;10.88;7.25;;;2.30;1.00;;;;;;5005076;28;20394;-72
2021/04/13 02:18:35;;;;;;;8.45;6.47;;;2.20;1.00;;;;;;4999958;28;20363;-72
2021/04/13 02:21:04;;;;;;;8.65;6.30;;;2.20;1.00;;;;;;5007758;28;20391;-73
2021/04/13 02:23:32;;;;;;;6.90;6.07;;;2.20;1.00;;;;;;5005702;28;20021;-72
2021/04/13 02:26:01;;;;;;;8.10;7.30;;;2.20;1.00;;;;;;5007386;28;20034;-72
2021/04/13 02:28:28;;;;;;;7.47;6.78;;;2.20;1.00;;;;;;5004783;28;20472;-72
2021/04/13 02:30:56;;;;;;;9.52;6.75;;;2.20;1.00;;;;;;5003659;28;20057;-73
2021/04/13 02:33:29;;;;;;;8.70;7.57;;;2.20;1.00;;;;;;5007827;28;20027;-73
2021/04/13 02:35:56;;;;;;;10.93;6.85;;;2.10;1.00;;;;;;5014751;28;20052;-72
2021/04/13 02:38:30;;;;;;;8.52;6.53;;;2.10;1.00;;;;;;5013429;28;20076;-72
2021/04/13 02:41:09;;;;;;;7.18;6.35;;;2.10;1.00;;;;;;5028725;28;20022;-72
2021/04/13 02:43:43;;;;;;;10.40;5.53;;;2.10;1.00;;;;;;5028067;28;20010;-72
2021/04/13 02:46:16;;;;;;;9.82;6.32;;;2.00;1.00;;;;;;5029415;28;20046;-72
2021/04/13 02:48:49;;;;;;;7.82;6.43;;;1.90;1.00;;;;;;5034907;28;20029;-72
2021/04/13 02:51:17;;;;;;;6.60;5.78;;;2.00;1.00;;;;;;5037358;28;20077;-73
2021/04/13 02:53:50;;;;;;;8.50;6.03;;;2.00;1.00;;;;;;5033744;28;20025;-71
2021/04/13 02:56:26;;;;;;;6.50;5.90;;;2.00;1.00;;;;;;5035478;28;20042;-73
2021/04/13 02:59:03;;;;;;;6.90;6.05;;;2.10;1.00;;;;;;5025941;28;20030;-72
2021/04/13 03:01:34;;;;;;;7.20;6.13;;;2.20;1.00;;;;;;5029553;28;20098;-71
2021/04/13 03:04:05;;;;;;;6.95;5.70;;;2.20;1.00;;;;;;5035342;28;20026;-72
2021/04/13 03:06:31;;;;;;;;;;;2.30;1.00;;;;;;5036556;28;20030;-71
2021/04/13 03:08:57;;;;;;;6.97;5.30;;;2.30;99.90;;;;;;5033813;28;19902;-72
2021/04/13 03:11:25;;;;;;;5.93;5.43;;;2.40;99.90;;;;;;5024362;28;20015;-73
2021/04/13 03:13:53;;;;;;;7.32;5.55;;;2.50;99.90;;;;;;5032496;28;20049;-71
2021/04/13 03:16:29;;;;;;;5.78;5.18;;;2.50;99.90;;;;;;5031438;28;20075;-72
2021/04/13 03:18:58;;;;;;;6.30;5.57;;;2.50;99.90;;;;;;5035672;28;20022;-72
2021/04/13 03:21:34;;;;;;;5.70;5.20;;;2.50;99.90;;;;;;5025412;28;20022;-72
2021/04/13 03:24:03;;;;;;;8.23;5.72;;;2.50;99.90;;;;;;5029476;28;20029;-72
2021/04/13 03:26:34;;;;;;;5.60;4.70;;;2.50;99.90;;;;;;5028208;28;20014;-72
2021/04/13 03:29:03;;;;;;;5.18;4.68;;;2.40;99.90;;;;;;5033891;28;20029;-73
2021/04/13 03:31:34;;;;;;;4.88;4.38;;;2.30;99.90;;;;;;5037948;28;20044;-73
2021/04/13 03:34:03;;;;;;;5.40;4.65;;;2.20;99.90;;;;;;5040052;28;20021;-73
2021/04/13 03:36:31;;;;;;;4.63;4.10;;;2.10;99.90;;;;;;5039406;28;20047;-72
2021/04/13 03:39:13;;;;;;;5.05;4.35;;;2.30;99.90;;;;;;5037788;28;20166;-71
2021/04/13 03:41:42;;;;;;;7.88;4.28;;;2.40;99.90;;;;;;5039830;28;20026;-72
2021/04/13 03:44:08;;;;;;;6.68;5.07;;;2.30;99.90;;;;;;5035031;28;20018;-72
2021/04/13 03:46:37;;;;;;;5.75;4.30;;;2.40;99.90;;;;;;5035097;28;20080;-72
2021/04/13 03:49:07;;;;;;;5.15;4.65;;;2.40;99.90;;;;;;5032256;28;20014;-72
2021/04/13 03:51:38;;;;;;;5.30;4.20;;;2.30;99.90;;;;;;5032628;28;20022;-72
2021/04/13 03:54:24;;;;;;;8.70;5.68;;;2.20;99.90;;;;;;5013414;28;20049;-72
2021/04/13 03:56:49;;;;;;;9.55;6.47;;;2.10;99.90;;;;;;5002731;28;20030;-72
2021/04/13 03:59:23;;;;;;;10.27;6.93;;;1.90;99.90;;;;;;5015506;28;20033;-72
2021/04/13 04:01:51;;;;;;;8.77;6.93;;;1.90;1.00;;;;;;5012616;28;20036;-73
2021/04/13 04:04:33;;;;;;;5.97;5.38;;;1.80;1.00;;;;;;5003858;28;20085;-73
2021/04/13 04:07:34;;;;;;;5.72;4.55;;;1.70;1.00;;;;;;5003951;28;20029;-73
2021/04/13 04:10:00;;;;;;;8.85;5.50;;;1.70;1.00;;;;;;5011078;28;20026;-72
2021/04/13 04:12:29;;;;;;;7.43;5.82;;;1.70;1.00;;;;;;5015255;28;20036;-73
2021/04/13 04:15:07;;;;;;;7.80;5.90;;;1.70;1.00;;;;;;5009360;28;20490;-73
2021/04/13 04:17:35;;;;;;;11.45;6.88;;;1.60;1.00;;;;;;5017455;28;20109;-73
2021/04/13 04:20:04;;;;;;;13.88;7.18;;;1.70;1.00;;;;;;5013669;28;20410;-72
2021/04/13 04:22:30;;;;;;;13.25;5.97;;;1.70;1.00;;;;;;5015422;28;20026;-72
2021/04/13 04:25:15;;;;;;;7.93;6.38;;;1.60;1.00;;;;;;5021327;28;20018;-73
2021/04/13 04:27:43;;;;;;;8.00;6.95;;;1.60;1.00;;;;;;5027942;28;20034;-73
2021/04/13 04:30:24;;;;;;;7.43;6.70;;;1.60;1.00;;;;;;5028911;28;20025;-72
2021/04/13 04:32:51;;;;;;;6.63;5.72;;;1.60;1.00;;;;;;5025049;28;20029;-72
2021/04/13 04:35:43;;;;;;;7.00;5.72;;;1.60;1.00;;;;;;5026324;28;20030;-73
2021/04/13 04:38:28;;;;;;;8.13;6.28;;;1.70;1.00;;;;;;5030464;28;20026;-73
2021/04/13 04:41:06;;;;;;;7.25;6.20;;;1.80;1.00;;;;;;5032844;28;20011;-72
2021/04/13 04:43:44;;;;;;;6.63;6.00;;;1.90;99.90;;;;;;5020248;28;20029;-72
2021/04/13 04:46:28;;;;;;;6.07;5.47;;;2.10;99.90;;;;;;5035046;28;20026;-72
2021/04/13 04:49:09;;;;;;;10.55;5.57;;;2.10;99.90;;;;;;5025247;28;20037;-72
2021/04/13 04:51:36;;;;;;;7.38;5.47;;;2.10;99.90;;;;;;5036398;28;20067;-72
2021/04/13 04:54:03;;;;;;;6.18;5.50;;;2.10;99.90;;;;;;5030210;28;20016;-72
2021/04/13 04:56:29;;;;;;;7.20;6.00;;;2.10;99.90;;;;;;5035500;28;20046;-71
2021/04/13 04:58:54;;;;;;;9.07;6.45;;;2.00;99.90;;;;;;5035632;28;20021;-71
2021/04/13 05:01:20;;;;;;;7.03;6.10;;;2.00;99.90;;;;;;5036067;28;20018;-72
2021/04/13 05:03:46;;;;;;;7.45;6.65;;;2.10;99.90;;;;;;5027461;28;20064;-72
2021/04/13 05:06:12;;;;;;;6.85;5.93;;;2.20;99.90;;;;;;5034350;28;20045;-72
2021/04/13 05:08:37;;;;;;;9.63;6.13;;;2.30;99.90;;;;;;5023214;28;20130;-72
2021/04/13 05:11:04;;;;;;;6.93;4.90;;;2.40;99.90;;;;;;5030243;28;20085;-72
2021/04/13 05:13:30;;;;;;;9.50;6.35;;;2.50;99.90;;;;;;5022508;28;20437;-72
2021/04/13 05:15:57;;;;;;;9.02;5.88;;;2.60;99.90;;;;;;5009883;28;20029;-72
2021/04/13 05:18:23;;;;;;;6.72;5.72;;;2.60;99.90;;;;;;5021379;28;20065;-73
2021/04/13 05:20:48;;;;;;;15.38;6.55;;;2.70;99.90;;;;;;5014075;28;20022;-72
2021/04/13 05:23:14;;;;;;;7.65;5.70;;;2.70;99.90;;;;;;5009627;28;20053;-72
2021/04/13 05:25:40;;;;;;;10.30;5.50;;;2.90;99.90;;;;;;5012281;28;20037;-72
2021/04/13 05:28:06;;;;;;;9.25;5.85;;;3.40;99.90;;;;;;5013708;28;20402;-72
2021/04/13 05:30:32;;;;;;;10.57;6.78;;;4.10;99.90;;;;;;5015466;28;20052;-71
2021/04/13 05:32:57;;;;;;;10.77;5.57;;;4.40;99.90;;;;;;5015401;28;20410;-72
2021/04/13 05:35:23;;;;;;;8.55;5.93;;;4.60;99.90;;;;;;5010349;28;20030;-71
2021/04/13 05:37:49;;;;;;;6.82;5.57;;;5.00;99.90;;;;;;5008779;28;20094;-71
2021/04/13 05:40:28;;;;;;;12.02;6.22;;;5.00;99.90;;;;;;5018058;28;20026;-72
2021/04/13 05:42:56;;;;;;;10.55;5.63;;;4.90;99.90;;;;;;5016510;28;20074;-72
2021/04/13 05:45:24;;;;;;;10.20;5.72;;;4.90;99.90;;;;;;5015871;28;20030;-72
2021/04/13 05:47:50;;;;;;;10.95;5.60;;;4.90;99.90;;;;;;5017149;28;20026;-71
2021/04/13 05:50:27;;;;;;;7.10;5.10;;;4.90;99.90;;;;;;5005442;28;20038;-73
2021/04/13 05:52:52;;;;;;;12.65;5.55;;;5.00;99.90;;;;;;5004754;28;20113;-73
2021/04/13 05:55:18;;;;;;;8.30;6.25;;;5.70;1.00;;;;;;5006420;28;20580;-72
2021/04/13 05:57:47;;;;;;;7.53;5.80;;;5.60;1.00;;;;;;5010258;28;20027;-72
2021/04/13 06:00:13;;;;;;;7.20;5.45;;;5.40;23.20;;;;;;5010817;28;20022;-72
2021/04/13 06:02:41;;;;;;;8.98;5.93;;;5.30;39.20;;;;;;5005038;28;20029;-72
2021/04/13 06:05:08;;;;;;;6.85;6.15;;;4.90;96.50;;;;;;5002227;28;20026;-72
2021/04/13 06:07:34;;;;;;;6.47;5.85;;;5.10;1.00;;;;;;5013442;28;20026;-72
2021/04/13 06:09:59;;;;;;;9.82;5.88;;;4.70;1.00;;;;;;5003271;28;20018;-73
2021/04/13 06:12:25;;;;;;;11.27;6.53;;;4.40;66.00;;;;;;5013018;28;20473;-72
2021/04/13 06:14:51;;;;;;;7.25;6.25;;;4.40;99.90;;;;;;5008705;28;20022;-72
2021/04/13 06:17:18;;;;;;;8.10;6.45;;;4.60;71.40;;;;;;5009900;28;20057;-72
2021/04/13 06:19:44;;;;;;;9.07;7.30;;;4.70;38.30;;;;;;5008850;28;20022;-72
2021/04/13 06:22:10;;;;;;;13.82;7.55;;;4.70;17.50;;;;;;5014483;28;20026;-71
2021/04/13 06:24:36;;;;;;;9.82;7.25;;;4.70;35.00;;;;;;5011908;28;20045;-71
2021/04/13 06:27:01;;;;;;;8.68;7.10;;;5.10;1.00;;;;;;5013112;28;20076;-72
2021/04/13 06:29:27;;;;;;;7.45;6.68;;;5.30;1.00;;;;;;5011633;28;20032;-73
2021/04/13 06:31:52;;;;;;;8.30;7.55;;;5.10;1.00;;;;;;5008588;28;20026;-72
2021/04/13 06:34:19;;;;;;;9.63;7.43;;;5.20;1.00;;;;;;5004473;28;20021;-73
2021/04/13 06:36:44;;;;;;;8.45;7.50;;;5.40;1.00;;;;;;5012283;28;20041;-73
2021/04/13 06:39:11;;;;;;;9.00;8.10;;;5.50;1.00;;;;;;5011257;28;20486;-72
2021/04/13 06:42:00;;;;;;;9.10;8.10;;;5.50;1.00;;;;;;5005724;28;20061;-73
2021/04/13 06:44:45;;;;;;;10.50;9.27;;;5.90;99.90;;;;;;5020695;28;20022;-72
2021/04/13 06:47:32;;;;;;;7.45;6.75;;;6.30;6.10;;;;;;5010032;28;20022;-72
2021/04/13 06:50:16;;;;;;;10.50;8.02;;;6.20;21.40;;;;;;5015800;28;20109;-73
2021/04/13 06:53:14;;;;;;;9.35;8.43;;;6.10;54.30;;;;;;5006646;28;20404;-74
2021/04/13 06:56:17;;;;;;;13.73;8.75;;;6.30;46.40;;;;;;5007539;28;20030;-73
2021/04/13 06:59:08;;;;;;;10.77;8.85;;;6.40;1.00;;;;;;5010821;28;20490;-73
2021/04/13 07:01:43;;;;;;;9.48;8.50;;;6.10;48.50;;;;;;5010049;28;20030;-74
2021/04/13 07:04:25;;;;;;;9.57;8.55;;;6.10;99.90;;;;;;5011073;28;20073;-73
2021/04/13 07:07:23;;;;;;;10.00;8.80;;;5.60;99.90;;;;;;5013621;28;20414;-72
2021/04/13 07:10:22;;;;;;;9.05;8.25;;;5.60;99.90;;;;;;5016419;28;20042;-73
2021/04/13 07:12:57;;;;;;;11.93;8.60;;;5.90;99.90;;;;;;5012096;28;20042;-76
2021/04/13 07:15:38;;;;;;;10.20;8.45;;;5.90;99.90;;;;;;5011799;28;20034;-74
2021/04/13 07:18:21;;;;;;;10.43;8.10;;;5.90;99.90;;;;;;5017365;28;20034;-76
2021/04/13 07:20:57;;;;;;;9.43;8.52;;;6.30;99.90;;;;;;5010013;28;20060;-76
2021/04/13 07:23:55;;;;;;;9.15;8.25;;;6.50;2.20;;;;;;5007774;28;20382;-75
2021/04/13 07:26:41;;;;;;;9.13;8.32;;;6.40;1.00;;;;;;4999644;28;20026;-74
2021/04/13 07:29:18;;;;;;;10.00;8.65;;;6.60;99.90;;;;;;5014456;28;20371;-75
2021/04/13 07:32:03;;;;;;;10.35;9.35;;;7.00;99.90;;;;;;5013228;28;20025;-73
2021/04/13 07:34:31;;;;;;;8.50;7.80;;;7.40;1.00;;;;;;5014449;28;20730;-75
2021/04/13 07:37:05;;;;;;;9.60;8.55;;;6.50;99.90;;;;;;5029858;28;20089;-76
2021/04/13 07:39:32;;;;;;;10.70;8.93;;;6.50;1.00;;;;;;5022006;28;20053;-76
2021/04/13 07:42:11;;;;;;;11.13;10.02;;;6.30;1.00;;;;;;5013567;28;20382;-76
2021/04/13 07:44:55;;;;;;;10.93;9.93;;;6.20;99.90;;;;;;5010319;28;20046;-76
2021/04/13 07:47:30;;;;;;;11.48;9.35;;;6.20;99.90;;;;;;5023207;28;20030;-75
2021/04/13 07:49:59;;;;;;;10.68;9.57;;;6.50;99.90;;;;;;5006396;28;20030;-75
2021/04/13 07:52:41;;;;;;;9.93;8.93;;;6.10;99.90;;;;;;5016234;28;20061;-76
2021/04/13 07:55:22;;;;;;;10.50;9.60;;;6.30;99.90;;;;;;5018942;28;20022;-76
2021/04/13 07:57:57;;;;;;;;;;;6.10;99.90;;;;;;5024599;28;20369;-76
2021/04/13 08:00:38;;;;;;;11.93;10.38;;;5.70;1.00;;;;;;5021853;28;19910;-76
2021/04/13 08:03:22;;;;;;;11.68;10.50;;;5.30;99.90;;;;;;5011290;28;20017;-76
2021/04/13 08:05:52;;;;;;;12.93;10.50;;;5.80;88.20;;;;;;5020390;28;20116;-76
2021/04/13 08:08:32;;;;;;;12.55;11.25;;;5.90;21.00;;;;;;5019783;28;20018;-75
2021/04/13 08:11:14;;;;;;;10.90;9.85;;;5.50;94.00;;;;;;5007887;28;20037;-75
2021/04/13 08:13:44;;;;;;;13.70;10.93;;;5.30;70.70;;;;;;5015212;28;20398;-76
2021/04/13 08:16:31;;;;;;;12.23;10.25;;;5.20;99.90;;;;;;5008837;28;20026;-75
2021/04/13 08:19:28;;;;;;;13.23;11.25;;;5.00;22.50;;;;;;5020428;28;20026;-76
2021/04/13 08:22:06;;;;;;;12.75;11.45;;;4.90;9.70;;;;;;5014616;28;20024;-76
2021/04/13 08:24:38;;;;;;;13.00;11.68;;;5.00;37.50;;;;;;5015440;28;20448;-76
2021/04/13 08:27:39;;;;;;;12.75;11.45;;;5.20;8.50;;;;;;5015977;28;21313;-76
2021/04/13 08:30:13;;;;;;;14.73;12.38;;;5.50;1.00;;;;;;5016800;28;20026;-76
2021/04/13 08:33:02;;;;;;;13.73;12.25;;;6.00;1.00;;;;;;5012571;28;20029;-76
2021/04/13 08:35:36;;;;;;;11.77;10.55;;;6.50;99.90;;;;;;5013758;28;20019;-76
2021/04/13 08:38:21;;;;;;;11.40;10.15;;;6.80;50.60;;;;;;5008574;28;20096;-75
2021/04/13 08:41:10;;;;;;;11.27;10.27;;;6.90;99.90;;;;;;5007632;28;20028;-76
2021/04/13 08:43:44;;;;;;;12.20;10.95;;;6.80;1.00;;;;;;5013883;28;20030;-75
2021/04/13 08:46:30;;;;;;;11.30;10.30;;;6.70;1.00;;;;;;5015426;28;20021;-75
2021/04/13 08:49:23;;;;;;;13.35;11.88;;;6.70;1.00;;;;;;5010440;28;20046;-75
2021/04/13 08:52:00;;;;;;;12.40;9.00;;;6.60;1.00;;;;;;5009441;28;20026;-76
2021/04/13 08:54:33;;;;;;;8.43;7.70;;;7.10;21.80;;;;;;5013396;28;20033;-75
2021/04/13 08:57:24;;;;;;;8.10;7.18;;;6.70;99.90;;;;;;5019480;28;20022;-76
2021/04/13 08:59:58;;;;;;;8.77;7.95;;;7.20;99.90;;;;;;5002589;28;20026;-76
2021/04/13 09:02:40;;;;;;;7.50;6.80;;;7.40;1.00;;;;;;5007834;28;20053;-76
2021/04/13 09:05:05;;;;;;;;;;;8.10;86.40;;;;;;5016110;28;20644;-75
2021/04/13 09:07:46;;;;;;;7.90;7.10;;;8.20;1.00;;;;;;5007266;28;19964;-75
2021/04/13 09:10:29;;;;;;;8.60;7.05;;;8.50;99.90;;;;;;5010066;28;20034;-76
2021/04/13 09:13:13;;;;;;;7.93;7.25;;;8.70;99.90;;;;;;5008380;28;20057;-77
2021/04/13 09:15:58;;;;;;;7.82;7.13;;;8.20;99.90;;;;;;5005720;28;20622;-76
2021/04/13 09:18:57;;;;;;;8.45;6.93;;;8.20;99.90;;;;;;5009723;28;20056;-76
2021/04/13 09:21:44;;;;;;;6.97;6.32;;;8.90;99.90;;;;;;4994623;28;20129;-76
2021/04/13 09:24:35;;;;;;;7.85;7.13;;;8.70;75.20;;;;;;5005881;28;20117;-75
2021/04/13 09:27:45;;;;;;;8.50;7.70;;;9.00;1.00;;;;;;5008968;28;20033;-77
2021/04/13 09:30:34;;;;;;;9.38;7.95;;;8.80;39.70;;;;;;5009215;28;20061;-75
2021/04/13 09:33:14;;;;;;;7.57;6.78;;;8.50;99.90;;;;;;5009942;28;20085;-76
2021/04/13 09:36:09;;;;;;;9.20;6.88;;;7.30;99.90;;;;;;5010417;28;20061;-76
2021/04/13 09:38:50;;;;;;;10.00;7.45;;;6.80;99.90;;;;;;5003060;28;20523;-75
2021/04/13 09:41:27;;;;;;;8.05;7.35;;;7.00;99.90;;;;;;5009293;28;20038;-76
2021/04/13 09:44:12;;;;;;;11.15;7.68;;;7.00;1.00;;;;;;5009142;28;20022;-76
2021/04/13 09:47:01;;;;;;;8.98;8.07;;;7.00;1.00;;;;;;5009637;28;20030;-76
2021/04/13 09:49:51;;;;;;;10.45;8.43;;;7.10;47.40;;;;;;5014359;28;20497;-77
2021/04/13 09:52:22;;;;;;;8.75;7.88;;;7.40;1.00;;;;;;5015515;28;20030;-76
2021/04/13 09:55:06;;;;;;;8.90;8.10;;;7.40;1.00;;;;;;5010283;28;20034;-76
2021/04/13 09:58:03;;;;;;;8.57;7.75;;;7.30;1.00;;;;;;5009778;28;20014;-76
2021/04/13 10:00:29;;;;;;;7.28;6.68;;;7.10;1.00;;;;;;5011698;28;20100;-76
2021/04/13 10:03:12;;;;;;;8.30;7.00;;;7.50;99.90;;;;;;5010290;28;20074;-76
2021/04/13 10:05:46;;;;;;;7.75;7.07;;;7.80;20.70;;;;;;5005913;28;20022;-75
2021/04/13 10:08:21;;;;;;;7.25;6.63;;;7.90;1.00;;;;;;5010243;28;20041;-76
2021/04/13 10:11:19;;;;;;;7.55;6.95;;;8.10;1.00;;;;;;5012307;28;20022;-77
2021/04/13 10:14:07;;;;;;;8.30;7.50;;;8.50;1.00;;;;;;5006136;28;20559;-75
2021/04/13 10:16:58;;;;;;;10.13;7.63;;;8.50;1.00;;;;;;5009421;28;20052;-76
2021/04/13 10:19:39;;;;;;;8.43;7.55;;;7.80;1.00;;;;;;5002089;28;20113;-76
2021/04/13 10:22:08;;;;;;;10.38;7.85;;;7.20;77.00;;;;;;5004703;28;20501;-77
2021/04/13 10:24:56;;;;;;;8.07;7.28;;;7.10;35.30;;;;;;5009820;28;20112;-77
2021/04/13 10:27:30;;;;;;;7.35;6.75;;;7.50;90.40;;;;;;5013677;28;20105;-76
2021/04/13 10:30:34;;;;;;;6.88;6.32;;;8.30;1.00;;;;;;5013978;28;20032;-75
2021/04/13 10:33:21;;;;;;;6.78;6.18;;;8.70;1.00;;;;;;5003802;28;20014;-76
2021/04/13 10:36:05;;;;;;;6.70;6.10;;;8.50;99.90;;;;;;5034779;28;20033;-76
2021/04/13 10:39:25;;;;;;;6.55;5.95;;;8.70;99.90;;;;;;5014208;28;20462;-78
2021/04/13 10:42:40;;;;;;;7.25;6.65;;;9.40;99.90;;;;;;5008098;28;20026;-73
2021/04/13 10:45:27;;;;;;;7.10;6.40;;;9.80;99.90;;;;;;5004561;28;20034;-74
2021/04/13 10:48:39;;;;;;;8.75;6.50;;;8.30;99.90;;;;;;5002237;28;20025;-75
2021/04/13 10:51:13;;;;;;;7.43;5.70;;;7.60;1.00;;;;;;5013195;28;20030;-75
2021/04/13 10:54:03;;;;;;;6.85;6.25;;;7.40;1.00;;;;;;5004829;28;20023;-74
2021/04/13 10:56:56;;;;;;;6.43;5.80;;;7.30;1.00;;;;;;5010372;28;20105;-73
2021/04/13 10:59:42;;;;;;;6.30;5.80;;;7.50;99.90;;;;;;5013770;28;20060;-73
2021/04/13 11:02:46;;;;;;;7.05;6.50;;;8.30;99.90;;;;;;5003789;28;20510;-73
2021/04/13 11:05:36;;;;;;;6.88;5.93;;;8.70;99.90;;;;;;5001055;28;20058;-75
2021/04/13 11:08:30;;;;;;;6.45;5.85;;;9.10;99.90;;;;;;5002983;28;20022;-75
2021/04/13 11:11:04;;;;;;;5.97;5.43;;;8.90;99.90;;;;;;5011858;28;20030;-75
2021/04/13 11:14:08;;;;;;;5.82;5.28;;;8.50;99.90;;;;;;5009751;28;20026;-76
2021/04/13 11:17:17;;;;;;;5.53;5.03;;;8.70;99.90;;;;;;5009825;28;20041;-75
2021/04/13 11:19:46;;;;;;;7.60;4.90;;;8.60;99.90;;;;;;5012378;28;20478;-73
2021/04/13 11:22:43;;;;;;;5.82;5.32;;;8.50;99.90;;;;;;5008489;28;20037;-75
2021/04/13 11:25:56;;;;;;;5.85;5.38;;;8.80;99.90;;;;;;5010302;28;20022;-75
2021/04/13 11:28:58;;;;;;;5.40;4.90;;;9.00;99.90;;;;;;5005864;28;20038;-74
2021/04/13 11:31:45;;;;;;;7.85;4.75;;;9.50;99.90;;;;;;4999579;28;20034;-75
2021/04/13 11:34:26;;;;;;;5.32;4.32;;;9.60;99.90;;;;;;5010392;28;20100;-75
2021/04/13 11:37:10;;;;;;;5.57;4.18;;;10.30;99.90;;;;;;5012633;28;20026;-75
2021/04/13 11:40:07;;;;;;;5.22;4.78;;;10.60;90.90;;;;;;5031928;23;20103;-72
2021/04/13 11:42:39;;;;;;;4.60;4.20;;;10.60;67.20;;;;;;5002136;28;20017;-73
2021/04/13 11:45:26;;;;;;;5.78;4.25;;;10.90;62.60;;;;;;5013534;28;20499;-73
2021/04/13 11:48:11;;;;;;;6.38;4.55;;;11.00;56.40;;;;;;5027760;28;20022;-73
2021/04/13 11:50:45;;;;;;;4.40;4.00;;;11.00;48.80;;;;;;5013263;28;20034;-75
2021/04/13 11:53:27;;;;;;;9.25;5.18;;;11.00;43.90;;;;;;5015218;28;20077;-74
2021/04/13 11:55:54;;;;;;;5.72;5.13;;;10.20;49.30;;;;;;5004323;28;20033;-74
2021/04/13 11:58:24;;;;;;;6.32;4.43;;;9.40;50.30;;;;;;5012786;28;20033;-74
2021/04/13 12:00:55;;;;;;;5.07;3.55;;;9.70;56.60;;;;;;5021155;28;21567;-73
2021/04/13 12:03:28;;;;;;;4.63;4.20;;;9.20;55.00;;;;;;5007420;28;20036;-75
2021/04/13 12:06:06;;;;;;;5.97;5.38;;;8.80;94.80;;;;;;5007896;28;20026;-74
2021/04/13 12:08:31;;;;;;;6.13;5.63;;;8.50;99.90;;;;;;5018086;28;20032;-75
2021/04/13 12:11:05;;;;;;;5.70;5.20;;;8.20;99.90;;;;;;5021207;28;20104;-73
2021/04/13 12:13:40;;;;;;;6.00;5.40;;;8.30;99.90;;;;;;5008200;28;20038;-74
2021/04/13 12:16:07;;;;;;;5.22;4.53;;;8.40;99.90;;;;;;5010614;28;20499;-76
2021/04/13 12:18:35;;;;;;;6.63;5.93;;;8.60;99.90;;;;;;5011271;28;20025;-75
2021/04/13 12:21:26;;;;;;;6.50;4.60;;;8.70;99.90;;;;;;5013925;28;20076;-74
2021/04/13 12:23:57;;;;;;;5.20;4.70;;;9.00;99.90;;;;;;5013604;28;20413;-74
2021/04/13 12:26:43;;;;;;;4.93;4.47;;;9.30;99.90;;;;;;5024898;28;20269;-74
2021/04/13 12:29:27;;;;;;;4.43;4.03;;;9.80;99.90;;;;;;5029862;28;20065;-75
2021/04/13 12:32:11;;;;;;;4.35;4.05;;;10.40;94.70;;;;;;5030647;28;20020;-74
2021/04/13 12:34:58;;;;;;;3.35;2.90;;;10.60;85.90;;;;;;5022407;28;20030;-75
2021/04/13 12:37:41;;;;;;;2.83;2.40;;;10.00;50.90;;;;;;5029318;28;20038;-76
2021/04/13 12:40:29;;;;;;;3.33;2.40;;;9.70;38.10;;;;;;5028542;28;20026;-77
2021/04/13 12:43:24;;;;;;;3.08;2.78;;;9.40;29.50;;;;;;5010145;28;20037;-78
2021/04/13 12:45:52;;;;;;;3.30;3.00;;;9.20;27.30;;;;;;5018828;28;20053;-74
2021/04/13 12:48:22;;;;;;;3.17;2.90;;;9.50;29.60;;;;;;5018526;28;20026;-73
2021/04/13 12:51:10;;;;;;;3.20;2.92;;;9.70;27.10;;;;;;5019897;28;20018;-74
2021/04/13 12:53:38;;;;;;;3.38;3.08;;;10.00;25.40;;;;;;4981934;28;20134;-78
2021/04/13 12:56:14;;;;;;;5.40;3.50;;;10.40;23.00;;;;;;5007330;28;20026;-79
2021/04/13 12:58:43;;;;;;;4.47;3.50;;;10.80;25.40;;;;;;4992031;28;20042;-78
2021/04/13 13:01:23;;;;;;;4.35;3.30;;;10.90;22.70;;;;;;5008600;28;20027;-80
2021/04/13 13:03:49;;;;;;;5.27;3.10;;;11.40;21.30;;;;;;5003549;28;20461;-79
2021/04/13 13:06:29;;;;;;;3.42;3.13;;;11.40;19.50;;;;;;5011018;28;20010;-79
2021/04/13 13:08:58;;;;;;;3.77;3.27;;;10.70;19.70;;;;;;5007584;28;20422;-78
2021/04/13 13:11:24;;;;;;;3.45;3.15;;;10.00;26.00;;;;;;5010725;28;20026;-79
2021/04/13 13:13:51;;;;;;;5.55;3.50;;;9.10;36.90;;;;;;5008657;28;20041;-78
2021/04/13 13:16:23;;;;;;;5.05;4.32;;;8.60;55.60;;;;;;5003685;28;20027;-79
2021/04/13 13:18:50;;;;;;;3.58;3.28;;;8.00;99.90;;;;;;5000163;28;20030;-79
2021/04/13 13:21:19;;;;;;;4.03;3.63;;;7.70;99.90;;;;;;5011789;28;20006;-78
2021/04/13 13:24:19;;;;;;;4.47;3.67;;;7.70;99.90;;;;;;5001898;28;20022;-78
2021/04/13 13:26:45;;;;;;;4.18;3.70;;;7.70;99.90;;;;;;4999357;28;20053;-78
2021/04/13 13:29:10;;;;;;;4.93;4.43;;;7.80;99.90;;;;;;5009147;28;20050;-78
2021/04/13 13:31:40;;;;;;;3.30;3.00;;;8.00;99.90;;;;;;5012492;28;20101;-79
2021/04/13 13:34:18;;;;;;;3.38;3.10;;;7.80;99.90;;;;;;5008923;28;20038;-82
2021/04/13 13:36:46;;;;;;;6.20;3.08;;;7.80;99.90;;;;;;4999422;28;20088;-79
2021/04/13 13:39:18;;;;;;;3.72;2.65;;;8.00;96.80;;;;;;4999310;28;20085;-78
2021/04/13 13:41:52;;;;;;;3.75;2.63;;;8.20;84.30;;;;;;4993766;28;20095;-80
2021/04/13 13:44:37;;;;;;;3.17;2.60;;;8.40;70.10;;;;;;5007202;28;20333;-78
2021/04/13 13:47:25;;;;;;;3.55;3.25;;;8.70;58.10;;;;;;5004427;28;20094;-79
2021/04/13 13:49:54;;;;;;;3.17;2.88;;;9.00;49.80;;;;;;4992456;28;20395;-80
2021/04/13 13:52:45;;;;;;;4.93;2.65;;;9.50;43.70;;;;;;5000932;28;20015;-77